Terminal Aerodrome Forecast
Issued by NWS Kansas City/Pleasant Hill, MO

Home | Current Version | Previous Version | Text Only | Print | Product List | Glossary On
Versions: 1 2 3 4 5 6 7 8 9 10 11 12 13 14 15 16
000
FTUS43 KEAX 252000 AAA
TAFMCI
TAF AMD
KMCI 252030Z 2521/2618 18012G21KT P6SM SCT025 BKN035
     FM260000 18010KT P6SM VCTS SCT030CB BKN050
     FM260300 19008KT P6SM -TSRA BKN030CB
     FM260700 19008KT P6SM VCSH BKN050
     FM261200 19008KT P6SM BKN100=

USA.gov is the U.S. government's official web portal to all federal, state and local government web resources and services.